Edina, MN (55435)

7:39 PM CDT on August 28, 2016 (GMT -0500)
Cornelia | | Change Station

Elev 860 ft 44.87 °N, 93.34 °W | Updated 6 seconds ago

Partly Cloudy
Partly Cloudy
81.1 °F
Feels Like 85 °F
N
0.7
Wind Variable Wind from South
Gusts 2.5 mph

Today
High -- | Low -- °F
--% Chance of Precip.
Yesterday
High -- | Low -- °F
Precip. -- in
Pressure 30.09 in
Visibility 10.0 miles
Clouds Few 3400 ft
Heat Index 85 °F
Dew Point 70 °F
Humidity 70%
Rainfall 0.00 in
Snow Depth Not available.
6:31 AM 7:56 PM
Waning Crescent, 12% visible
METAR KMSP 282353Z 16007KT 10SM FEW034 28/19 A3010 RMK AO2 SLP188 T02780194 10294 20272 55002
Pressure 30.09 in
Visibility 10.0 miles
Clouds Few 3400 ft
Heat Index 85 °F
Dew Point 70 °F
Humidity 70%
Rainfall 0.00 in
Snow Depth Not available.
6:31 AM 7:56 PM
Waning Crescent, 12% visible
METAR KMSP 282353Z 16007KT 10SM FEW034 28/19 A3010 RMK AO2 SLP188 T02780194 10294 20272 55002

10-Day Weather Forecast

Almanac

Astronomy

Aug. 28, 2016 Rise Set
Actual Time
Civil Twilight
Nautical Twilight
Astronomical Twilight
Moon
Length of Visible Light
Length of Day
Tomorrow will be .
, % of the Moon is Illuminated

Today's Extremes

State Highs State Lows

Community

WunderPhotos

Upload Photos

1,935,743 photos uploaded!

WunderBlog® & News

Nearby

Air Quality

  Air Quality AQ Index Pollutant
Not available.

Snow Depth

Station Depth Elevation

Earthquake Activity

City Distance Mag. Time & Date
Minimum magnitude displayed is 2.5.

Coastal Water Temperatures

Place Temperature

Stations

Nearby Weather Stations

Station Location Temp. Windchill Dew Point Humidity Wind Precip. Elev Updated Type
                   

Watches & Warnings

There are currently no watches in effect.